sensor_id;sensor_type;location;lat;lon;timestamp;P1;durP1;ratioP1;P2;durP2;ratioP2
19782;SDS011;10051;40.294;-3.754;2023-04-25T00:00:15;2.97;;;0.82;;
19782;SDS011;10051;40.294;-3.754;2023-04-25T00:02:41;3.25;;;0.60;;
19782;SDS011;10051;40.294;-3.754;2023-04-25T00:05:07;3.60;;;0.73;;
19782;SDS011;10051;40.294;-3.754;2023-04-25T00:07:33;1.23;;;0.65;;
19782;SDS011;10051;40.294;-3.754;2023-04-25T00:09:59;1.75;;;0.77;;
19782;SDS011;10051;40.294;-3.754;2023-04-25T00:12:25;3.03;;;0.80;;
19782;SDS011;10051;40.294;-3.754;2023-04-25T00:14:53;1.25;;;0.70;;
19782;SDS011;10051;40.294;-3.754;2023-04-25T00:17:25;1.27;;;0.77;;
19782;SDS011;10051;40.294;-3.754;2023-04-25T00:19:51;1.67;;;0.80;;
19782;SDS011;10051;40.294;-3.754;2023-04-25T00:22:17;1.90;;;0.80;;
19782;SDS011;10051;40.294;-3.754;2023-04-25T00:24:43;2.55;;;0.77;;
19782;SDS011;10051;40.294;-3.754;2023-04-25T00:27:08;1.20;;;0.70;;
19782;SDS011;10051;40.294;-3.754;2023-04-25T00:29:34;1.67;;;0.73;;
19782;SDS011;10051;40.294;-3.754;2023-04-25T00:31:59;1.13;;;0.80;;
19782;SDS011;10051;40.294;-3.754;2023-04-25T00:34:26;1.77;;;0.75;;
19782;SDS011;10051;40.294;-3.754;2023-04-25T00:36:52;1.23;;;0.80;;
19782;SDS011;10051;40.294;-3.754;2023-04-25T00:39:17;1.10;;;0.63;;
19782;SDS011;10051;40.294;-3.754;2023-04-25T00:41:43;1.42;;;0.80;;
19782;SDS011;10051;40.294;-3.754;2023-04-25T00:44:10;1.77;;;0.80;;
19782;SDS011;10051;40.294;-3.754;2023-04-25T00:46:36;0.85;;;0.60;;
19782;SDS011;10051;40.294;-3.754;2023-04-25T00:49:03;2.28;;;0.65;;
19782;SDS011;10051;40.294;-3.754;2023-04-25T00:51:29;1.85;;;0.82;;
19782;SDS011;10051;40.294;-3.754;2023-04-25T00:53:56;1.00;;;0.80;;
19782;SDS011;10051;40.294;-3.754;2023-04-25T00:56:28;3.38;;;1.25;;
19782;SDS011;10051;40.294;-3.754;2023-04-25T00:58:54;1.67;;;1.30;;
19782;SDS011;10051;40.294;-3.754;2023-04-25T01:01:21;3.78;;;1.10;;
19782;SDS011;10051;40.294;-3.754;2023-04-25T01:03:47;2.45;;;0.90;;
19782;SDS011;10051;40.294;-3.754;2023-04-25T01:06:15;2.42;;;0.80;;
19782;SDS011;10051;40.294;-3.754;2023-04-25T01:08:41;2.47;;;0.90;;
19782;SDS011;10051;40.294;-3.754;2023-04-25T01:11:07;2.33;;;0.93;;
19782;SDS011;10051;40.294;-3.754;2023-04-25T01:13:33;3.30;;;1.20;;
19782;SDS011;10051;40.294;-3.754;2023-04-25T01:15:59;2.00;;;0.95;;
19782;SDS011;10051;40.294;-3.754;2023-04-25T01:18:26;2.03;;;0.98;;
19782;SDS011;10051;40.294;-3.754;2023-04-25T01:20:52;2.72;;;1.00;;
19782;SDS011;10051;40.294;-3.754;2023-04-25T01:23:21;2.72;;;0.93;;
19782;SDS011;10051;40.294;-3.754;2023-04-25T01:25:48;2.33;;;1.00;;
19782;SDS011;10051;40.294;-3.754;2023-04-25T01:28:14;2.97;;;1.00;;
19782;SDS011;10051;40.294;-3.754;2023-04-25T01:30:40;3.42;;;1.50;;
19782;SDS011;10051;40.294;-3.754;2023-04-25T01:33:06;2.97;;;2.15;;
19782;SDS011;10051;40.294;-3.754;2023-04-25T01:35:33;2.65;;;1.27;;
19782;SDS011;10051;40.294;-3.754;2023-04-25T01:37:58;3.85;;;1.30;;
19782;SDS011;10051;40.294;-3.754;2023-04-25T01:40:25;1.88;;;1.23;;
19782;SDS011;10051;40.294;-3.754;2023-04-25T01:42:52;2.92;;;1.30;;
19782;SDS011;10051;40.294;-3.754;2023-04-25T01:45:18;1.85;;;1.00;;
19782;SDS011;10051;40.294;-3.754;2023-04-25T01:47:44;2.92;;;0.90;;
19782;SDS011;10051;40.294;-3.754;2023-04-25T01:50:14;2.30;;;1.00;;
19782;SDS011;10051;40.294;-3.754;2023-04-25T01:52:40;2.45;;;1.00;;
19782;SDS011;10051;40.294;-3.754;2023-04-25T01:55:06;1.98;;;0.90;;
19782;SDS011;10051;40.294;-3.754;2023-04-25T01:57:32;5.72;;;0.90;;
19782;SDS011;10051;40.294;-3.754;2023-04-25T02:00:01;3.28;;;1.13;;
19782;SDS011;10051;40.294;-3.754;2023-04-25T02:02:29;2.05;;;0.90;;
19782;SDS011;10051;40.294;-3.754;2023-04-25T02:04:55;3.20;;;1.00;;
19782;SDS011;10051;40.294;-3.754;2023-04-25T02:07:21;2.47;;;1.00;;
19782;SDS011;10051;40.294;-3.754;2023-04-25T02:09:46;2.65;;;0.90;;
19782;SDS011;10051;40.294;-3.754;2023-04-25T02:12:12;1.13;;;0.95;;
19782;SDS011;10051;40.294;-3.754;2023-04-25T02:14:38;1.92;;;1.00;;
19782;SDS011;10051;40.294;-3.754;2023-04-25T02:17:03;3.58;;;0.93;;
19782;SDS011;10051;40.294;-3.754;2023-04-25T02:19:29;2.15;;;0.90;;
19782;SDS011;10051;40.294;-3.754;2023-04-25T02:21:54;2.50;;;0.80;;
19782;SDS011;10051;40.294;-3.754;2023-04-25T02:24:22;1.30;;;0.90;;
19782;SDS011;10051;40.294;-3.754;2023-04-25T02:26:47;1.60;;;1.00;;
19782;SDS011;10051;40.294;-3.754;2023-04-25T02:29:14;1.85;;;0.80;;
19782;SDS011;10051;40.294;-3.754;2023-04-25T02:31:40;2.65;;;1.00;;
19782;SDS011;10051;40.294;-3.754;2023-04-25T02:34:06;3.05;;;1.02;;
19782;SDS011;10051;40.294;-3.754;2023-04-25T02:36:31;1.73;;;1.02;;
19782;SDS011;10051;40.294;-3.754;2023-04-25T02:38:59;1.67;;;0.90;;
19782;SDS011;10051;40.294;-3.754;2023-04-25T02:41:25;6.47;;;1.13;;
19782;SDS011;10051;40.294;-3.754;2023-04-25T02:43:51;3.33;;;1.00;;
19782;SDS011;10051;40.294;-3.754;2023-04-25T02:46:17;1.33;;;0.93;;
19782;SDS011;10051;40.294;-3.754;2023-04-25T02:48:42;2.78;;;1.10;;
19782;SDS011;10051;40.294;-3.754;2023-04-25T02:51:08;2.53;;;1.30;;
19782;SDS011;10051;40.294;-3.754;2023-04-25T02:53:34;2.72;;;1.20;;
19782;SDS011;10051;40.294;-3.754;2023-04-25T02:56:03;4.10;;;1.30;;
19782;SDS011;10051;40.294;-3.754;2023-04-25T02:58:28;4.07;;;1.42;;
19782;SDS011;10051;40.294;-3.754;2023-04-25T03:00:54;4.53;;;1.52;;
19782;SDS011;10051;40.294;-3.754;2023-04-25T03:03:20;7.75;;;1.60;;
19782;SDS011;10051;40.294;-3.754;2023-04-25T03:05:48;4.63;;;1.80;;
19782;SDS011;10051;40.294;-3.754;2023-04-25T03:08:15;3.33;;;1.77;;
19782;SDS011;10051;40.294;-3.754;2023-04-25T03:10:41;4.53;;;1.85;;
19782;SDS011;10051;40.294;-3.754;2023-04-25T03:13:08;5.95;;;1.73;;
19782;SDS011;10051;40.294;-3.754;2023-04-25T03:15:34;4.05;;;1.90;;
19782;SDS011;10051;40.294;-3.754;2023-04-25T03:18:00;3.38;;;1.70;;
19782;SDS011;10051;40.294;-3.754;2023-04-25T03:20:26;3.90;;;1.50;;
19782;SDS011;10051;40.294;-3.754;2023-04-25T03:22:51;4.32;;;1.58;;
19782;SDS011;10051;40.294;-3.754;2023-04-25T03:25:17;5.00;;;1.50;;
19782;SDS011;10051;40.294;-3.754;2023-04-25T03:27:42;3.50;;;1.40;;
19782;SDS011;10051;40.294;-3.754;2023-04-25T03:30:08;2.63;;;1.25;;
19782;SDS011;10051;40.294;-3.754;2023-04-25T03:32:34;3.05;;;1.30;;
19782;SDS011;10051;40.294;-3.754;2023-04-25T03:35:00;3.05;;;1.20;;
19782;SDS011;10051;40.294;-3.754;2023-04-25T03:37:26;2.40;;;1.20;;
19782;SDS011;10051;40.294;-3.754;2023-04-25T03:39:51;3.17;;;1.10;;
19782;SDS011;10051;40.294;-3.754;2023-04-25T03:42:17;1.83;;;1.30;;
19782;SDS011;10051;40.294;-3.754;2023-04-25T03:44:42;3.28;;;1.27;;
19782;SDS011;10051;40.294;-3.754;2023-04-25T03:47:08;3.22;;;1.30;;
19782;SDS011;10051;40.294;-3.754;2023-04-25T03:49:34;2.30;;;1.20;;
19782;SDS011;10051;40.294;-3.754;2023-04-25T03:52:00;2.50;;;1.27;;
19782;SDS011;10051;40.294;-3.754;2023-04-25T03:54:26;4.15;;;1.42;;
19782;SDS011;10051;40.294;-3.754;2023-04-25T03:56:52;2.22;;;1.10;;
19782;SDS011;10051;40.294;-3.754;2023-04-25T03:59:17;2.50;;;1.13;;
19782;SDS011;10051;40.294;-3.754;2023-04-25T04:01:43;2.20;;;1.20;;
19782;SDS011;10051;40.294;-3.754;2023-04-25T04:04:09;6.80;;;1.20;;
19782;SDS011;10051;40.294;-3.754;2023-04-25T04:06:34;2.03;;;1.27;;
19782;SDS011;10051;40.294;-3.754;2023-04-25T04:09:01;3.53;;;1.45;;
19782;SDS011;10051;40.294;-3.754;2023-04-25T04:11:27;2.72;;;1.63;;
19782;SDS011;10051;40.294;-3.754;2023-04-25T04:13:53;4.60;;;1.70;;
19782;SDS011;10051;40.294;-3.754;2023-04-25T04:16:18;4.72;;;1.70;;
19782;SDS011;10051;40.294;-3.754;2023-04-25T04:18:44;2.92;;;1.40;;
19782;SDS011;10051;40.294;-3.754;2023-04-25T04:21:10;3.92;;;1.33;;
19782;SDS011;10051;40.294;-3.754;2023-04-25T04:23:36;3.00;;;1.25;;
19782;SDS011;10051;40.294;-3.754;2023-04-25T04:26:02;2.35;;;1.30;;
19782;SDS011;10051;40.294;-3.754;2023-04-25T04:28:28;2.80;;;1.40;;
19782;SDS011;10051;40.294;-3.754;2023-04-25T04:30:54;2.35;;;1.10;;
19782;SDS011;10051;40.294;-3.754;2023-04-25T04:33:22;3.58;;;1.20;;
19782;SDS011;10051;40.294;-3.754;2023-04-25T04:35:49;6.43;;;1.48;;
19782;SDS011;10051;40.294;-3.754;2023-04-25T04:38:17;5.80;;;1.40;;
19782;SDS011;10051;40.294;-3.754;2023-04-25T04:40:43;4.15;;;1.40;;
19782;SDS011;10051;40.294;-3.754;2023-04-25T04:43:09;2.20;;;1.30;;
19782;SDS011;10051;40.294;-3.754;2023-04-25T04:45:35;4.68;;;1.50;;
19782;SDS011;10051;40.294;-3.754;2023-04-25T04:48:01;6.32;;;1.60;;
19782;SDS011;10051;40.294;-3.754;2023-04-25T04:50:27;3.38;;;1.52;;
19782;SDS011;10051;40.294;-3.754;2023-04-25T04:52:57;3.90;;;1.60;;
19782;SDS011;10051;40.294;-3.754;2023-04-25T04:55:23;5.05;;;1.60;;
19782;SDS011;10051;40.294;-3.754;2023-04-25T04:57:48;4.72;;;1.50;;
19782;SDS011;10051;40.294;-3.754;2023-04-25T05:00:15;3.40;;;1.42;;
19782;SDS011;10051;40.294;-3.754;2023-04-25T05:02:40;6.25;;;1.70;;
19782;SDS011;10051;40.294;-3.754;2023-04-25T05:05:06;3.58;;;1.52;;
19782;SDS011;10051;40.294;-3.754;2023-04-25T05:07:33;4.43;;;1.63;;
19782;SDS011;10051;40.294;-3.754;2023-04-25T05:09:59;4.70;;;1.55;;
19782;SDS011;10051;40.294;-3.754;2023-04-25T05:12:27;5.75;;;1.73;;
19782;SDS011;10051;40.294;-3.754;2023-04-25T05:14:53;3.88;;;1.30;;
19782;SDS011;10051;40.294;-3.754;2023-04-25T05:17:18;2.70;;;1.52;;
19782;SDS011;10051;40.294;-3.754;2023-04-25T05:19:44;3.70;;;1.38;;
19782;SDS011;10051;40.294;-3.754;2023-04-25T05:22:09;8.18;;;1.50;;
19782;SDS011;10051;40.294;-3.754;2023-04-25T05:24:35;5.78;;;1.30;;
19782;SDS011;10051;40.294;-3.754;2023-04-25T05:27:01;3.90;;;1.30;;
19782;SDS011;10051;40.294;-3.754;2023-04-25T05:29:26;5.00;;;1.38;;
19782;SDS011;10051;40.294;-3.754;2023-04-25T05:31:52;3.38;;;1.30;;
19782;SDS011;10051;40.294;-3.754;2023-04-25T05:34:21;2.63;;;1.20;;
19782;SDS011;10051;40.294;-3.754;2023-04-25T05:36:46;4.32;;;1.35;;
19782;SDS011;10051;40.294;-3.754;2023-04-25T05:39:13;3.75;;;1.52;;
19782;SDS011;10051;40.294;-3.754;2023-04-25T05:41:42;8.52;;;1.60;;
19782;SDS011;10051;40.294;-3.754;2023-04-25T05:44:08;3.42;;;1.52;;
19782;SDS011;10051;40.294;-3.754;2023-04-25T05:46:34;5.95;;;1.48;;
19782;SDS011;10051;40.294;-3.754;2023-04-25T05:48:59;3.85;;;1.60;;
19782;SDS011;10051;40.294;-3.754;2023-04-25T05:51:25;4.88;;;1.40;;
19782;SDS011;10051;40.294;-3.754;2023-04-25T05:53:51;2.10;;;1.20;;
19782;SDS011;10051;40.294;-3.754;2023-04-25T05:56:16;2.65;;;1.30;;
19782;SDS011;10051;40.294;-3.754;2023-04-25T05:58:42;2.00;;;1.20;;
19782;SDS011;10051;40.294;-3.754;2023-04-25T06:01:08;4.47;;;1.20;;
19782;SDS011;10051;40.294;-3.754;2023-04-25T06:03:34;5.05;;;1.80;;
19782;SDS011;10051;40.294;-3.754;2023-04-25T06:06:00;5.10;;;1.75;;
19782;SDS011;10051;40.294;-3.754;2023-04-25T06:08:25;5.70;;;2.33;;
19782;SDS011;10051;40.294;-3.754;2023-04-25T06:10:51;9.15;;;2.28;;
19782;SDS011;10051;40.294;-3.754;2023-04-25T06:13:17;6.07;;;2.30;;
19782;SDS011;10051;40.294;-3.754;2023-04-25T06:15:45;9.48;;;2.35;;
19782;SDS011;10051;40.294;-3.754;2023-04-25T06:18:11;8.27;;;2.67;;
19782;SDS011;10051;40.294;-3.754;2023-04-25T06:20:36;9.45;;;2.45;;
19782;SDS011;10051;40.294;-3.754;2023-04-25T06:23:02;10.95;;;2.20;;
19782;SDS011;10051;40.294;-3.754;2023-04-25T06:25:28;9.10;;;2.08;;
19782;SDS011;10051;40.294;-3.754;2023-04-25T06:27:53;11.13;;;2.67;;
19782;SDS011;10051;40.294;-3.754;2023-04-25T06:30:18;6.45;;;2.60;;
19782;SDS011;10051;40.294;-3.754;2023-04-25T06:32:47;6.22;;;2.58;;
19782;SDS011;10051;40.294;-3.754;2023-04-25T06:35:12;4.47;;;1.90;;
19782;SDS011;10051;40.294;-3.754;2023-04-25T06:37:38;5.43;;;1.80;;
19782;SDS011;10051;40.294;-3.754;2023-04-25T06:40:04;6.05;;;1.70;;
19782;SDS011;10051;40.294;-3.754;2023-04-25T06:42:30;6.05;;;1.60;;
19782;SDS011;10051;40.294;-3.754;2023-04-25T06:44:56;5.47;;;1.38;;
19782;SDS011;10051;40.294;-3.754;2023-04-25T06:47:21;3.20;;;1.05;;
19782;SDS011;10051;40.294;-3.754;2023-04-25T06:49:47;2.22;;;1.02;;
19782;SDS011;10051;40.294;-3.754;2023-04-25T06:52:12;2.00;;;1.10;;
19782;SDS011;10051;40.294;-3.754;2023-04-25T06:54:38;6.28;;;1.20;;
19782;SDS011;10051;40.294;-3.754;2023-04-25T06:57:03;7.22;;;1.25;;
19782;SDS011;10051;40.294;-3.754;2023-04-25T06:59:29;4.45;;;1.10;;
19782;SDS011;10051;40.294;-3.754;2023-04-25T07:01:55;3.42;;;1.25;;
19782;SDS011;10051;40.294;-3.754;2023-04-25T07:04:20;2.55;;;1.30;;
19782;SDS011;10051;40.294;-3.754;2023-04-25T07:06:46;5.28;;;1.20;;
19782;SDS011;10051;40.294;-3.754;2023-04-25T07:09:13;8.02;;;1.50;;
19782;SDS011;10051;40.294;-3.754;2023-04-25T07:11:38;5.32;;;1.45;;
19782;SDS011;10051;40.294;-3.754;2023-04-25T07:14:04;4.35;;;1.23;;
19782;SDS011;10051;40.294;-3.754;2023-04-25T07:16:30;5.05;;;1.25;;
19782;SDS011;10051;40.294;-3.754;2023-04-25T07:18:55;6.35;;;1.30;;
19782;SDS011;10051;40.294;-3.754;2023-04-25T07:21:21;2.35;;;0.95;;
19782;SDS011;10051;40.294;-3.754;2023-04-25T07:23:46;6.80;;;1.30;;
19782;SDS011;10051;40.294;-3.754;2023-04-25T07:26:12;2.83;;;1.15;;
19782;SDS011;10051;40.294;-3.754;2023-04-25T07:28:38;3.17;;;1.33;;
19782;SDS011;10051;40.294;-3.754;2023-04-25T07:31:03;5.07;;;1.20;;
19782;SDS011;10051;40.294;-3.754;2023-04-25T07:33:30;99.40;;;8.55;;
19782;SDS011;10051;40.294;-3.754;2023-04-25T07:35:56;86.25;;;6.68;;
19782;SDS011;10051;40.294;-3.754;2023-04-25T07:38:21;183.07;;;7.22;;
19782;SDS011;10051;40.294;-3.754;2023-04-25T07:40:47;22.48;;;3.28;;
19782;SDS011;10051;40.294;-3.754;2023-04-25T07:43:16;15.35;;;4.28;;
19782;SDS011;10051;40.294;-3.754;2023-04-25T07:45:42;51.58;;;4.82;;
19782;SDS011;10051;40.294;-3.754;2023-04-25T07:48:08;76.18;;;6.35;;
19782;SDS011;10051;40.294;-3.754;2023-04-25T07:50:34;12.15;;;2.67;;
19782;SDS011;10051;40.294;-3.754;2023-04-25T07:52:59;7.50;;;2.43;;
19782;SDS011;10051;40.294;-3.754;2023-04-25T07:55:25;16.60;;;3.30;;
19782;SDS011;10051;40.294;-3.754;2023-04-25T07:57:51;10.07;;;3.60;;
19782;SDS011;10051;40.294;-3.754;2023-04-25T08:00:16;16.02;;;4.40;;
19782;SDS011;10051;40.294;-3.754;2023-04-25T08:02:42;19.67;;;4.43;;
19782;SDS011;10051;40.294;-3.754;2023-04-25T08:05:08;12.20;;;2.90;;
19782;SDS011;10051;40.294;-3.754;2023-04-25T08:07:37;7.03;;;2.53;;
19782;SDS011;10051;40.294;-3.754;2023-04-25T08:10:04;10.40;;;2.55;;
19782;SDS011;10051;40.294;-3.754;2023-04-25T08:12:31;9.27;;;2.42;;
19782;SDS011;10051;40.294;-3.754;2023-04-25T08:14:57;6.47;;;2.05;;
19782;SDS011;10051;40.294;-3.754;2023-04-25T08:17:22;6.25;;;2.17;;
19782;SDS011;10051;40.294;-3.754;2023-04-25T08:19:48;7.15;;;2.13;;
19782;SDS011;10051;40.294;-3.754;2023-04-25T08:22:14;10.13;;;2.50;;
19782;SDS011;10051;40.294;-3.754;2023-04-25T08:24:40;10.68;;;2.15;;
19782;SDS011;10051;40.294;-3.754;2023-04-25T08:27:06;11.45;;;2.50;;
19782;SDS011;10051;40.294;-3.754;2023-04-25T08:29:33;7.93;;;2.97;;
19782;SDS011;10051;40.294;-3.754;2023-04-25T08:31:59;11.95;;;3.15;;
19782;SDS011;10051;40.294;-3.754;2023-04-25T08:34:24;14.35;;;3.70;;
19782;SDS011;10051;40.294;-3.754;2023-04-25T08:36:51;9.90;;;3.45;;
19782;SDS011;10051;40.294;-3.754;2023-04-25T08:39:16;9.93;;;3.10;;
19782;SDS011;10051;40.294;-3.754;2023-04-25T08:41:42;11.90;;;3.17;;
19782;SDS011;10051;40.294;-3.754;2023-04-25T08:44:11;9.93;;;3.00;;
19782;SDS011;10051;40.294;-3.754;2023-04-25T08:46:38;7.68;;;2.85;;
19782;SDS011;10051;40.294;-3.754;2023-04-25T08:49:05;9.75;;;2.50;;
19782;SDS011;10051;40.294;-3.754;2023-04-25T08:51:33;13.85;;;2.47;;
19782;SDS011;10051;40.294;-3.754;2023-04-25T08:54:10;3.08;;;1.10;;
19782;SDS011;10051;40.294;-3.754;2023-04-25T08:56:38;2.63;;;0.90;;
19782;SDS011;10051;40.294;-3.754;2023-04-25T08:59:05;3.75;;;0.90;;
19782;SDS011;10051;40.294;-3.754;2023-04-25T09:01:33;1.90;;;0.80;;
19782;SDS011;10051;40.294;-3.754;2023-04-25T09:04:00;1.77;;;0.80;;
19782;SDS011;10051;40.294;-3.754;2023-04-25T09:06:26;1.08;;;0.95;;
19782;SDS011;10051;40.294;-3.754;2023-04-25T09:09:03;4.82;;;0.90;;
19782;SDS011;10051;40.294;-3.754;2023-04-25T09:11:30;1.33;;;0.75;;
19782;SDS011;10051;40.294;-3.754;2023-04-25T09:19:34;3.38;;;1.02;;
19782;SDS011;10051;40.294;-3.754;2023-04-25T09:22:02;4.65;;;1.00;;
19782;SDS011;10051;40.294;-3.754;2023-04-25T09:24:38;7.82;;;1.20;;
19782;SDS011;10051;40.294;-3.754;2023-04-25T09:27:13;3.83;;;1.23;;
19782;SDS011;10051;40.294;-3.754;2023-04-25T09:29:44;2.42;;;0.90;;
19782;SDS011;10051;40.294;-3.754;2023-04-25T09:34:47;3.45;;;0.70;;
19782;SDS011;10051;40.294;-3.754;2023-04-25T09:37:22;2.10;;;0.90;;
19782;SDS011;10051;40.294;-3.754;2023-04-25T09:39:49;2.63;;;0.90;;
19782;SDS011;10051;40.294;-3.754;2023-04-25T09:42:16;1.77;;;0.90;;
19782;SDS011;10051;40.294;-3.754;2023-04-25T09:44:43;3.05;;;0.90;;
19782;SDS011;10051;40.294;-3.754;2023-04-25T09:47:11;1.23;;;0.80;;
19782;SDS011;10051;40.294;-3.754;2023-04-25T09:49:41;2.67;;;0.80;;
19782;SDS011;10051;40.294;-3.754;2023-04-25T09:52:08;1.25;;;0.70;;
19782;SDS011;10051;40.294;-3.754;2023-04-25T09:54:34;1.38;;;0.80;;
19782;SDS011;10051;40.294;-3.754;2023-04-25T09:57:09;1.23;;;0.80;;
19782;SDS011;10051;40.294;-3.754;2023-04-25T09:59:42;1.60;;;0.85;;
19782;SDS011;10051;40.294;-3.754;2023-04-25T10:02:09;3.30;;;0.70;;
19782;SDS011;10051;40.294;-3.754;2023-04-25T10:04:36;3.40;;;0.70;;
19782;SDS011;10051;40.294;-3.754;2023-04-25T10:07:05;6.13;;;0.88;;
19782;SDS011;10051;40.294;-3.754;2023-04-25T10:09:31;2.83;;;0.88;;
19782;SDS011;10051;40.294;-3.754;2023-04-25T10:12:01;1.50;;;0.80;;
19782;SDS011;10051;40.294;-3.754;2023-04-25T10:14:31;2.83;;;0.80;;
19782;SDS011;10051;40.294;-3.754;2023-04-25T10:16:58;2.30;;;0.80;;
19782;SDS011;10051;40.294;-3.754;2023-04-25T10:19:24;1.60;;;0.95;;
19782;SDS011;10051;40.294;-3.754;2023-04-25T10:24:41;2.50;;;0.90;;
19782;SDS011;10051;40.294;-3.754;2023-04-25T10:27:07;1.73;;;0.88;;
19782;SDS011;10051;40.294;-3.754;2023-04-25T10:29:33;2.65;;;0.90;;
19782;SDS011;10051;40.294;-3.754;2023-04-25T10:32:00;1.42;;;0.90;;
19782;SDS011;10051;40.294;-3.754;2023-04-25T10:34:43;1.52;;;0.70;;
19782;SDS011;10051;40.294;-3.754;2023-04-25T10:37:12;3.17;;;0.85;;
19782;SDS011;10051;40.294;-3.754;2023-04-25T10:41:47;4.20;;;0.90;;
19782;SDS011;10051;40.294;-3.754;2023-04-25T10:44:21;3.35;;;1.20;;
19782;SDS011;10051;40.294;-3.754;2023-04-25T10:46:47;2.28;;;0.80;;
19782;SDS011;10051;40.294;-3.754;2023-04-25T10:49:29;2.40;;;0.85;;
19782;SDS011;10051;40.294;-3.754;2023-04-25T10:52:15;1.00;;;0.70;;
19782;SDS011;10051;40.294;-3.754;2023-04-25T10:54:57;0.90;;;0.70;;
19782;SDS011;10051;40.294;-3.754;2023-04-25T11:02:30;5.72;;;0.80;;
19782;SDS011;10051;40.294;-3.754;2023-04-25T11:04:56;1.85;;;1.20;;
19782;SDS011;10051;40.294;-3.754;2023-04-25T11:07:44;2.65;;;0.80;;
19782;SDS011;10051;40.294;-3.754;2023-04-25T11:10:19;2.25;;;0.60;;
19782;SDS011;10051;40.294;-3.754;2023-04-25T11:12:45;1.52;;;0.90;;
19782;SDS011;10051;40.294;-3.754;2023-04-25T11:15:13;3.67;;;0.80;;
19782;SDS011;10051;40.294;-3.754;2023-04-25T11:17:39;2.85;;;0.77;;
19782;SDS011;10051;40.294;-3.754;2023-04-25T11:20:06;1.52;;;0.60;;
19782;SDS011;10051;40.294;-3.754;2023-04-25T11:22:36;1.13;;;0.60;;
19782;SDS011;10051;40.294;-3.754;2023-04-25T11:25:04;2.63;;;0.70;;
19782;SDS011;10051;40.294;-3.754;2023-04-25T11:27:31;4.82;;;0.60;;
19782;SDS011;10051;40.294;-3.754;2023-04-25T11:29:57;1.55;;;0.70;;
19782;SDS011;10051;40.294;-3.754;2023-04-25T11:32:23;3.33;;;0.70;;
19782;SDS011;10051;40.294;-3.754;2023-04-25T11:34:48;1.38;;;0.70;;
19782;SDS011;10051;40.294;-3.754;2023-04-25T11:37:16;1.85;;;0.60;;
19782;SDS011;10051;40.294;-3.754;2023-04-25T11:39:42;2.58;;;0.70;;
19782;SDS011;10051;40.294;-3.754;2023-04-25T11:42:10;2.17;;;0.70;;
19782;SDS011;10051;40.294;-3.754;2023-04-25T11:44:37;0.95;;;0.70;;
19782;SDS011;10051;40.294;-3.754;2023-04-25T11:47:03;1.00;;;0.80;;
19782;SDS011;10051;40.294;-3.754;2023-04-25T11:49:32;2.88;;;0.70;;
19782;SDS011;10051;40.294;-3.754;2023-04-25T11:51:58;1.10;;;0.70;;
19782;SDS011;10051;40.294;-3.754;2023-04-25T11:54:23;1.40;;;0.80;;
19782;SDS011;10051;40.294;-3.754;2023-04-25T11:56:49;1.70;;;0.73;;
19782;SDS011;10051;40.294;-3.754;2023-04-25T11:59:15;1.02;;;0.55;;
19782;SDS011;10051;40.294;-3.754;2023-04-25T12:01:49;3.33;;;0.80;;
19782;SDS011;10051;40.294;-3.754;2023-04-25T12:04:19;1.10;;;0.60;;
19782;SDS011;10051;40.294;-3.754;2023-04-25T12:06:49;1.40;;;0.60;;
19782;SDS011;10051;40.294;-3.754;2023-04-25T12:09:17;1.40;;;0.68;;
19782;SDS011;10051;40.294;-3.754;2023-04-25T12:14:27;1.33;;;0.60;;
19782;SDS011;10051;40.294;-3.754;2023-04-25T12:16:55;0.60;;;0.60;;
19782;SDS011;10051;40.294;-3.754;2023-04-25T12:19:25;2.05;;;0.70;;
19782;SDS011;10051;40.294;-3.754;2023-04-25T12:21:51;2.13;;;0.60;;
19782;SDS011;10051;40.294;-3.754;2023-04-25T12:24:24;1.05;;;0.50;;
19782;SDS011;10051;40.294;-3.754;2023-04-25T12:27:05;0.98;;;0.70;;
19782;SDS011;10051;40.294;-3.754;2023-04-25T12:29:33;1.70;;;0.70;;
19782;SDS011;10051;40.294;-3.754;2023-04-25T12:31:59;0.90;;;0.57;;
19782;SDS011;10051;40.294;-3.754;2023-04-25T12:34:26;0.88;;;0.55;;
19782;SDS011;10051;40.294;-3.754;2023-04-25T12:36:53;1.70;;;0.52;;
19782;SDS011;10051;40.294;-3.754;2023-04-25T12:39:24;1.08;;;0.60;;
19782;SDS011;10051;40.294;-3.754;2023-04-25T12:41:51;0.60;;;0.40;;
19782;SDS011;10051;40.294;-3.754;2023-04-25T12:44:19;0.80;;;0.60;;
19782;SDS011;10051;40.294;-3.754;2023-04-25T12:46:46;1.63;;;0.65;;
19782;SDS011;10051;40.294;-3.754;2023-04-25T12:49:14;0.75;;;0.60;;
19782;SDS011;10051;40.294;-3.754;2023-04-25T12:51:40;1.00;;;0.60;;
19782;SDS011;10051;40.294;-3.754;2023-04-25T12:54:06;1.27;;;0.60;;
19782;SDS011;10051;40.294;-3.754;2023-04-25T12:56:33;0.70;;;0.50;;
19782;SDS011;10051;40.294;-3.754;2023-04-25T12:58:59;2.85;;;0.50;;
19782;SDS011;10051;40.294;-3.754;2023-04-25T13:01:25;1.25;;;0.50;;
19782;SDS011;10051;40.294;-3.754;2023-04-25T13:03:51;1.15;;;0.60;;
19782;SDS011;10051;40.294;-3.754;2023-04-25T13:06:18;1.77;;;0.60;;
19782;SDS011;10051;40.294;-3.754;2023-04-25T13:08:44;2.72;;;0.70;;
19782;SDS011;10051;40.294;-3.754;2023-04-25T13:11:10;1.83;;;0.70;;
19782;SDS011;10051;40.294;-3.754;2023-04-25T13:13:36;4.78;;;0.60;;
19782;SDS011;10051;40.294;-3.754;2023-04-25T13:16:03;0.60;;;0.60;;
19782;SDS011;10051;40.294;-3.754;2023-04-25T13:18:30;0.65;;;0.50;;
19782;SDS011;10051;40.294;-3.754;2023-04-25T13:20:56;0.88;;;0.50;;
19782;SDS011;10051;40.294;-3.754;2023-04-25T13:23:22;1.67;;;0.60;;
19782;SDS011;10051;40.294;-3.754;2023-04-25T13:25:48;0.60;;;0.50;;
19782;SDS011;10051;40.294;-3.754;2023-04-25T13:28:14;1.63;;;0.60;;
19782;SDS011;10051;40.294;-3.754;2023-04-25T13:30:41;2.65;;;0.60;;
19782;SDS011;10051;40.294;-3.754;2023-04-25T13:33:06;1.08;;;0.70;;
19782;SDS011;10051;40.294;-3.754;2023-04-25T13:35:32;2.90;;;0.68;;
19782;SDS011;10051;40.294;-3.754;2023-04-25T13:37:59;1.45;;;0.60;;
19782;SDS011;10051;40.294;-3.754;2023-04-25T13:40:25;0.93;;;0.52;;
19782;SDS011;10051;40.294;-3.754;2023-04-25T13:42:51;3.22;;;0.50;;
19782;SDS011;10051;40.294;-3.754;2023-04-25T13:45:17;1.58;;;0.50;;
19782;SDS011;10051;40.294;-3.754;2023-04-25T13:47:43;2.15;;;0.52;;
19782;SDS011;10051;40.294;-3.754;2023-04-25T13:50:09;0.70;;;0.50;;
19782;SDS011;10051;40.294;-3.754;2023-04-25T13:52:35;1.75;;;0.60;;
19782;SDS011;10051;40.294;-3.754;2023-04-25T13:55:03;1.52;;;0.68;;
19782;SDS011;10051;40.294;-3.754;2023-04-25T13:57:31;1.45;;;0.68;;
19782;SDS011;10051;40.294;-3.754;2023-04-25T13:59:58;1.17;;;0.70;;
19782;SDS011;10051;40.294;-3.754;2023-04-25T14:02:24;0.93;;;0.60;;
19782;SDS011;10051;40.294;-3.754;2023-04-25T14:04:50;1.05;;;0.73;;
19782;SDS011;10051;40.294;-3.754;2023-04-25T14:07:15;0.70;;;0.70;;
19782;SDS011;10051;40.294;-3.754;2023-04-25T14:09:41;0.80;;;0.60;;
19782;SDS011;10051;40.294;-3.754;2023-04-25T14:12:07;1.40;;;0.52;;
19782;SDS011;10051;40.294;-3.754;2023-04-25T14:14:33;2.03;;;0.60;;
19782;SDS011;10051;40.294;-3.754;2023-04-25T14:17:04;0.80;;;0.50;;
19782;SDS011;10051;40.294;-3.754;2023-04-25T14:19:30;2.15;;;0.70;;
19782;SDS011;10051;40.294;-3.754;2023-04-25T14:21:55;1.40;;;0.60;;
19782;SDS011;10051;40.294;-3.754;2023-04-25T14:24:24;0.80;;;0.60;;
19782;SDS011;10051;40.294;-3.754;2023-04-25T14:26:50;1.23;;;0.70;;
19782;SDS011;10051;40.294;-3.754;2023-04-25T14:29:15;2.42;;;0.65;;
19782;SDS011;10051;40.294;-3.754;2023-04-25T14:31:41;1.52;;;0.70;;
19782;SDS011;10051;40.294;-3.754;2023-04-25T14:34:07;0.88;;;0.60;;
19782;SDS011;10051;40.294;-3.754;2023-04-25T14:36:33;0.63;;;0.60;;
19782;SDS011;10051;40.294;-3.754;2023-04-25T14:38:59;1.48;;;0.80;;
19782;SDS011;10051;40.294;-3.754;2023-04-25T14:41:25;2.20;;;0.90;;
19782;SDS011;10051;40.294;-3.754;2023-04-25T14:43:53;2.17;;;0.77;;
19782;SDS011;10051;40.294;-3.754;2023-04-25T14:46:19;2.25;;;0.70;;
19782;SDS011;10051;40.294;-3.754;2023-04-25T14:48:48;1.40;;;0.80;;
19782;SDS011;10051;40.294;-3.754;2023-04-25T14:51:14;2.30;;;0.60;;